Time;durP1;ratioP1;P1;durP2;ratioP2;P2;SDS_P1;SDS_P2;PMS_P1;PMS_P2;Temp;Humidity;BMP_temperature;BMP_pressure;BME280_temperature;BME280_humidity;BME280_pressure;Samples;Min_cycle;Max_cycle;Signal;HPM_P1;HPM_P2
2022/04/01 00:00:27;;;;;;;28.87;5.90;;;;;;;16.97;41.57;99064.92;1756335;81;25618;-62
2022/04/01 00:02:56;;;;;;;22.82;5.97;;;;;;;16.96;41.58;99064.61;1756465;81;25670;-61
2022/04/01 00:05:23;;;;;;;28.40;7.28;;;;;;;16.94;41.70;99063.17;1756820;81;26000;-62
2022/04/01 00:07:50;;;;;;;28.40;6.37;;;;;;;16.92;41.96;99057.94;1756521;81;25755;-63
2022/04/01 00:10:17;;;;;;;36.23;6.92;;;;;;;16.90;41.89;99064.94;1756683;81;27543;-62
2022/04/01 00:12:46;;;;;;;36.63;7.33;;;;;;;16.89;42.17;99066.52;1756451;81;25824;-62
2022/04/01 00:15:15;;;;;;;43.20;6.80;;;;;;;16.87;42.31;99068.11;1756439;81;25788;-62
2022/04/01 00:17:43;;;;;;;34.38;6.75;;;;;;;16.86;42.53;99061.52;1747060;81;26715;-62
2022/04/01 00:20:13;;;;;;;23.73;6.72;;;;;;;16.83;42.68;99059.27;1749913;81;25778;-63
2022/04/01 00:22:42;;;;;;;25.65;6.67;;;;;;;16.81;42.57;99066.25;1749630;81;28149;-62
2022/04/01 00:25:09;;;;;;;25.50;6.75;;;;;;;16.78;42.49;99057.70;1750007;82;26163;-62
2022/04/01 00:27:37;;;;;;;37.13;6.92;;;;;;;16.76;42.48;99058.48;1749793;82;25563;-61
2022/04/01 00:30:06;;;;;;;29.63;7.17;;;;;;;16.76;42.72;99058.48;1749951;82;25934;-62
2022/04/01 00:32:33;;;;;;;23.60;6.90;;;;;;;16.73;42.83;99055.65;1750293;82;25794;-62
2022/04/01 00:35:00;;;;;;;39.92;6.92;;;;;;;16.71;42.60;99052.34;1749929;82;27340;-62
2022/04/01 00:37:27;;;;;;;37.15;7.42;;;;;;;16.70;42.50;99054.75;1762122;79;26031;-62
2022/04/01 00:39:54;;;;;;;38.90;8.20;;;;;;;16.68;42.50;99063.09;1755277;80;25761;-62
2022/04/01 00:42:21;;;;;;;38.15;8.13;;;;;;;16.69;42.91;99068.83;1768293;80;25816;-61
2022/04/01 00:44:49;;;;;;;38.80;7.97;;;;;;;16.69;43.18;99072.09;1728208;83;25825;-62
2022/04/01 00:47:16;;;;;;;35.38;6.87;;;;;;;16.66;42.88;99065.22;1714341;83;27490;-62
2022/04/01 00:49:46;;;;;;;40.25;6.95;;;;;;;16.64;43.21;99069.17;1709585;83;25604;-62
2022/04/01 00:52:17;;;;;;;36.30;7.37;;;;;;;16.58;43.10;99063.58;1709611;83;25818;-62
2022/04/01 00:54:45;;;;;;;36.20;7.65;;;;;;;16.54;43.19;99055.55;1709926;83;25788;-63
2022/04/01 00:57:14;;;;;;;39.53;8.95;;;;;;;16.51;43.34;99049.22;1696344;83;25561;-62
2022/04/01 00:59:42;;;;;;;32.85;7.15;;;;;;;16.48;43.58;99034.72;1707173;84;27403;-62
2022/04/01 01:02:10;;;;;;;36.95;7.25;;;;;;;16.45;43.62;99038.39;1707429;84;25939;-61
2022/04/01 01:04:38;;;;;;;30.32;6.95;;;;;;;16.42;44.18;99045.09;1707743;84;25700;-62
2022/04/01 01:07:06;;;;;;;44.23;7.08;;;;;;;16.39;44.05;99048.23;1719509;81;25858;-62
2022/04/01 01:09:33;;;;;;;36.38;8.88;;;;;;;16.32;44.02;99038.76;1728534;83;25723;-62
2022/04/01 01:12:01;;;;;;;37.13;7.83;;;;;;;16.31;44.51;99045.77;1728339;81;27088;-63
2022/04/01 01:14:31;;;;;;;40.85;7.37;;;;;;;16.29;44.94;99047.35;1728277;81;25481;-62
2022/04/01 01:17:00;;;;;;;33.92;7.37;;;;;;;16.25;44.57;99042.03;1718140;83;25874;-63
2022/04/01 01:19:29;;;;;;;29.25;6.55;;;;;;;16.23;44.51;99044.97;1711227;83;25835;-62
2022/04/01 01:21:58;;;;;;;39.30;6.85;;;;;;;16.21;44.60;99055.73;1711101;83;25669;-62
2022/04/01 01:24:35;;;;;;;47.88;8.20;;;;;;;16.15;44.68;99062.85;1711399;83;27433;-63
2022/04/01 01:27:08;;;;;;;43.90;7.37;;;;;;;16.09;44.79;99065.89;1710823;83;25477;-63
2022/04/01 01:29:38;;;;;;;;;;;;;;;16.02;45.00;99058.31;1713642;82;25686;-63
2022/04/01 01:32:09;;;;;;;39.33;8.48;;;;;;;15.94;45.16;99051.77;1711437;82;25845;-63
2022/04/01 01:34:42;;;;;;;39.30;9.15;;;;;;;15.88;45.02;99058.88;1711161;83;25784;-62
2022/04/01 01:37:11;;;;;;;41.80;7.78;;;;;;;15.81;45.35;99057.50;1720173;82;27544;-62
2022/04/01 01:39:40;;;;;;;36.60;7.67;;;;;;;15.74;45.53;99053.98;1707343;81;26951;-63
2022/04/01 01:42:08;;;;;;;33.30;8.35;;;;;;;15.64;45.75;99047.63;1732943;81;25707;-63
2022/04/01 01:44:35;;;;;;;40.55;8.55;;;;;;;15.60;46.00;99059.09;1744304;82;26333;-63
2022/04/01 01:47:04;;;;;;;25.85;6.90;;;;;;;15.57;46.13;99061.71;1744480;80;25671;-63
2022/04/01 01:49:32;;;;;;;40.95;9.30;;;;;;;15.57;46.32;99056.30;1744679;80;27380;-63
2022/04/01 01:54:49;;;;;;;43.58;8.40;;;;;;;15.61;47.32;99060.27;1744192;82;25804;-61
2022/04/01 01:57:24;;;;;;;49.95;8.80;;;;;;;15.63;47.63;99050.05;1744196;80;25914;-62
2022/04/01 01:59:55;;;;;;;42.78;8.20;;;;;;;15.65;47.74;99047.94;1714863;83;25708;-63
2022/04/01 02:02:23;;;;;;;29.82;8.08;;;;;;;15.67;47.33;99044.19;1714428;83;27473;-63
2022/04/01 02:04:50;;;;;;;53.45;7.90;;;;;;;15.67;47.43;99036.05;1722185;82;25830;-62
2022/04/01 02:07:18;;;;;;;38.05;7.47;;;;;;;15.67;47.29;99036.05;1742734;82;25679;-62
2022/04/01 02:09:46;;;;;;;46.23;8.60;;;;;;;15.65;47.29;99037.09;1742680;82;25744;-63
2022/04/01 02:12:16;;;;;;;31.07;7.70;;;;;;;15.64;47.46;99030.00;1742689;82;25816;-62
2022/04/01 02:14:43;;;;;;;28.95;8.95;;;;;;;15.63;47.33;99030.23;1740623;82;27664;-61
2022/04/01 02:17:10;;;;;;;53.48;8.83;;;;;;;15.58;47.31;99024.09;1714487;82;25494;-62
2022/04/01 02:19:37;;;;;;;42.38;8.70;;;;;;;15.54;47.29;99014.73;1715750;83;25841;-61
2022/04/01 02:22:08;;;;;;;42.03;8.38;;;;;;;15.50;47.49;99018.89;1685350;85;25922;-62
2022/04/01 02:24:36;;;;;;;32.95;7.75;;;;;;;15.44;47.54;99009.73;1658653;84;26041;-62
2022/04/01 02:27:04;;;;;;;37.48;9.15;;;;;;;15.34;47.69;99015.59;1714578;83;28334;-61
2022/04/01 02:29:32;;;;;;;40.55;8.95;;;;;;;15.26;47.92;99013.61;1714312;83;25645;-61
2022/04/01 02:32:07;;;;;;;37.03;8.53;;;;;;;15.20;47.89;99016.63;1710664;83;25717;-61
2022/04/01 02:34:47;;;;;;;41.77;7.90;;;;;;;15.15;48.18;99012.38;1715661;81;25914;-61
2022/04/01 02:37:13;;;;;;;46.48;7.78;;;;;;;15.06;48.38;99010.39;1744050;82;25747;-61
2022/04/01 02:39:40;;;;;;;35.00;8.30;;;;;;;15.03;49.87;99001.34;1744146;81;29591;-62
2022/04/01 02:42:09;;;;;;;30.77;7.75;;;;;;;15.05;49.26;98998.42;1743887;82;25744;-62
2022/04/01 02:44:36;;;;;;;39.15;8.05;;;;;;;15.06;49.45;99005.50;1750386;82;25709;-62
2022/04/01 02:47:04;;;;;;;46.20;8.55;;;;;;;15.08;49.77;98998.02;1750266;81;25809;-62
2022/04/01 02:49:31;;;;;;;43.95;8.03;;;;;;;15.09;50.01;99000.50;1750394;82;25633;-62
2022/04/01 02:52:00;;;;;;;37.80;8.45;;;;;;;15.11;49.88;99011.11;1750360;81;27719;-62
2022/04/01 02:54:27;;;;;;;46.73;8.20;;;;;;;15.12;50.38;99016.84;1750280;82;25723;-62
2022/04/01 02:56:57;;;;;;;37.45;7.30;;;;;;;15.11;49.94;99013.82;1750370;81;26115;-61
2022/04/01 02:59:25;;;;;;;42.13;7.35;;;;;;;15.09;49.53;99004.56;1755084;81;25779;-61
2022/04/01 03:01:55;;;;;;;46.23;9.58;;;;;;;15.07;49.30;99010.70;1755807;81;25971;-63
2022/04/01 03:04:23;;;;;;;42.73;7.78;;;;;;;15.03;49.25;99012.17;1756047;81;27454;-62
2022/04/01 03:06:52;;;;;;;43.33;8.30;;;;;;;14.99;49.23;99013.13;1755685;80;25649;-62
2022/04/01 03:09:19;;;;;;;40.28;8.08;;;;;;;14.94;49.24;99010.19;1756233;80;25689;-61
2022/04/01 03:11:54;;;;;;;34.23;7.12;;;;;;;14.90;49.41;99010.80;1755138;81;25824;-61
2022/04/01 03:14:23;;;;;;;47.43;8.33;;;;;;;14.85;49.50;99001.95;1751852;81;25655;-62
2022/04/01 03:17:08;;;;;;;46.95;7.33;;;;;;;14.81;49.63;99008.30;1755932;81;27557;-61
2022/04/01 03:19:36;;;;;;;50.50;8.93;;;;;;;14.78;50.01;99000.63;1750398;81;25737;-61
2022/04/01 03:22:04;;;;;;;36.45;8.85;;;;;;;14.79;50.93;99008.20;1750306;82;25554;-62
2022/04/01 03:24:32;;;;;;;43.25;9.13;;;;;;;14.80;51.30;99011.23;1750338;82;26520;-62
2022/04/01 03:26:59;;;;;;;32.98;9.23;;;;;;;14.81;51.12;99007.48;1749028;82;25716;-62
2022/04/01 03:29:26;;;;;;;47.45;8.05;;;;;;;14.79;50.83;99004.97;1721286;82;28000;-64
2022/04/01 03:31:54;;;;;;;41.25;8.93;;;;;;;14.80;51.01;99007.17;1718667;83;25726;-62
2022/04/01 03:34:22;;;;;;;40.65;8.10;;;;;;;14.79;51.00;99011.73;1719080;82;25725;-63
2022/04/01 03:36:49;;;;;;;36.38;8.50;;;;;;;14.80;50.85;99021.52;1719581;82;25798;-62
2022/04/01 03:39:18;;;;;;;41.42;8.20;;;;;;;14.79;50.77;99022.56;1719176;82;26139;-63
2022/04/01 03:41:46;;;;;;;39.78;9.45;;;;;;;14.78;50.94;99020.92;1718988;82;27653;-60
2022/04/01 03:44:14;;;;;;;42.23;10.20;;;;;;;14.78;51.09;99024.13;1723428;83;26059;-62
2022/04/01 03:46:54;;;;;;;45.28;9.73;;;;;;;14.78;50.67;99022.78;1725311;80;25743;-62
2022/04/01 03:49:23;;;;;;;43.05;10.25;;;;;;;14.75;50.58;99017.27;1721794;83;25966;-63
2022/04/01 03:51:52;;;;;;;40.00;8.80;;;;;;;14.74;50.81;99022.36;1723961;83;25755;-63
2022/04/01 03:54:19;;;;;;;35.20;7.72;;;;;;;14.73;50.75;99020.69;1724293;83;27439;-62
2022/04/01 03:57:04;;;;;;;52.78;9.63;;;;;;;14.71;50.70;99016.84;1730045;81;25940;-64
2022/04/01 03:59:41;;;;;;;45.00;9.78;;;;;;;14.72;50.75;99025.78;1755813;81;25809;-62
2022/04/01 04:02:28;;;;;;;48.68;8.98;;;;;;;14.71;51.26;99031.73;1755598;80;25982;-63
2022/04/01 04:04:58;;;;;;;37.05;8.10;;;;;;;14.73;51.16;99025.28;1756012;81;25470;-62
2022/04/01 04:07:26;;;;;;;37.00;8.93;;;;;;;14.70;51.19;99025.19;1768883;79;27494;-62
2022/04/01 04:09:54;;;;;;;43.17;7.87;;;;;;;14.70;51.38;99023.83;1736603;82;25794;-63
2022/04/01 04:12:23;;;;;;;49.15;9.40;;;;;;;14.71;51.31;99025.47;1736742;82;25674;-63
2022/04/01 04:14:53;;;;;;;50.63;10.43;;;;;;;14.71;51.59;99023.61;1735466;81;26699;-64
2022/04/01 04:17:40;;;;;;;45.08;9.48;;;;;;;14.71;51.38;99027.67;1733475;82;25762;-62
2022/04/01 04:20:14;;;;;;;39.48;8.33;;;;;;;14.73;51.54;99028.81;1727292;83;27476;-62
2022/04/01 04:23:17;;;;;;;35.38;8.23;;;;;;;14.73;51.59;99032.05;1696318;84;25793;-62
2022/04/01 04:25:59;;;;;;;33.25;7.28;;;;;;;14.73;51.85;99034.76;1684279;82;25511;-62
2022/04/01 04:28:35;;;;;;;54.25;9.30;;;;;;;14.71;51.73;99025.47;1700502;84;26103;-63
2022/04/01 04:31:07;;;;;;;35.13;8.28;;;;;;;14.71;51.49;99032.23;1694890;84;26101;-62
2022/04/01 04:33:40;;;;;;;42.30;9.23;;;;;;;14.69;51.63;99028.39;1738652;82;27461;-63
2022/04/01 04:36:07;;;;;;;41.98;9.28;;;;;;;14.71;51.88;99036.30;1742364;81;27254;-62
2022/04/01 04:38:41;;;;;;;41.75;8.95;;;;;;;14.73;52.34;99037.46;1766006;80;25782;-62
2022/04/01 04:41:09;;;;;;;54.23;9.60;;;;;;;14.71;52.30;99041.20;1769021;81;25895;-63
2022/04/01 04:43:46;;;;;;;48.70;8.20;;;;;;;14.74;52.40;99039.95;1771046;79;25485;-62
2022/04/01 04:46:15;;;;;;;48.63;10.32;;;;;;;14.75;52.45;99038.92;1773748;80;27464;-62
2022/04/01 04:48:42;;;;;;;55.10;8.88;;;;;;;14.78;52.45;99041.73;1773753;80;25677;-62
2022/04/01 04:51:10;;;;;;;47.20;9.50;;;;;;;14.78;52.50;99039.02;1773478;79;25486;-62
2022/04/01 04:53:40;;;;;;;54.40;9.00;;;;;;;14.79;52.33;99044.75;1765084;80;25920;-62
2022/04/01 04:56:07;;;;;;;39.00;8.05;;;;;;;14.79;52.10;99038.80;1766381;79;25959;-61
2022/04/01 04:58:39;;;;;;;58.45;11.15;;;;;;;14.83;52.30;99041.42;1758023;80;27458;-62
2022/04/01 05:01:39;;;;;;;45.83;9.08;;;;;;;14.85;52.10;99037.15;1765211;79;25763;-61
2022/04/01 05:04:32;;;;;;;51.68;8.90;;;;;;;14.88;51.78;99039.45;1719396;81;25823;-61
2022/04/01 05:07:24;;;;;;;51.73;9.43;;;;;;;14.92;51.61;99043.42;1741621;81;25862;-62
2022/04/01 05:10:16;;;;;;;51.18;10.78;;;;;;;14.98;51.70;99049.86;1735956;82;25876;-62
2022/04/01 05:13:25;;;;;;;53.95;8.28;;;;;;;15.02;51.41;99056.01;1748672;80;28213;-63
2022/04/01 05:16:05;;;;;;;53.28;10.63;;;;;;;15.07;51.25;99046.44;1771584;80;25493;-63
2022/04/01 05:18:42;;;;;;;50.63;9.85;;;;;;;15.07;51.33;99047.26;1751467;80;25700;-62
2022/04/01 05:21:22;;;;;;;46.00;9.58;;;;;;;15.07;51.28;99053.21;1736991;82;26476;-62
2022/04/01 05:24:02;;;;;;;41.18;8.23;;;;;;;15.05;51.47;99053.43;1757709;80;25805;-62
2022/04/01 05:26:38;;;;;;;44.88;9.83;;;;;;;15.07;51.42;99054.56;1804285;79;27450;-62
2022/04/01 05:29:26;;;;;;;45.23;9.38;;;;;;;15.09;51.34;99049.78;1773997;79;27317;-61
2022/04/01 05:32:07;;;;;;;57.75;10.60;;;;;;;15.13;51.18;99049.16;1774028;80;25718;-62
2022/04/01 05:34:49;;;;;;;46.65;9.58;;;;;;;15.18;51.35;99042.58;1773887;79;25776;-63
2022/04/01 05:37:18;;;;;;;59.93;11.28;;;;;;;15.26;51.12;99041.55;1773114;79;25779;-63
2022/04/01 05:39:47;;;;;;;44.65;10.15;;;;;;;15.33;51.03;99046.94;1772273;80;27534;-62
2022/04/01 05:42:18;;;;;;;64.00;11.48;;;;;;;15.39;50.88;99046.12;1772336;80;25488;-61
2022/04/01 05:44:48;;;;;;;46.95;9.38;;;;;;;15.46;50.71;99051.00;1769201;80;25668;-61
2022/04/01 05:47:16;;;;;;;50.05;11.03;;;;;;;15.53;50.67;99047.44;1772569;80;26778;-62
2022/04/01 05:49:46;;;;;;;54.80;10.13;;;;;;;15.63;50.51;99051.91;1772388;81;25804;-62
2022/04/01 05:52:14;;;;;;;34.35;8.58;;;;;;;15.71;50.23;99047.61;1772528;80;27549;-62
2022/04/01 05:54:44;;;;;;;53.25;10.58;;;;;;;15.79;50.08;99046.56;1772013;81;25770;-62
2022/04/01 05:57:12;;;;;;;48.52;10.00;;;;;;;15.89;49.91;99050.20;1772231;81;25686;-63
2022/04/01 05:59:41;;;;;;;58.05;10.45;;;;;;;15.95;49.64;99039.34;1773969;80;26501;-63
2022/04/01 06:02:44;;;;;;;59.48;10.82;;;;;;;16.03;49.51;99042.35;1774290;79;26093;-62
2022/04/01 06:05:26;;;;;;;53.70;8.78;;;;;;;16.10;49.34;99047.22;1773999;80;28181;-63
2022/04/01 06:08:07;;;;;;;38.28;8.95;;;;;;;16.16;49.14;99040.61;1774077;79;25640;-61
2022/04/01 06:11:06;;;;;;;48.28;10.55;;;;;;;16.26;48.97;99036.92;1741588;82;25711;-62
2022/04/01 06:14:05;;;;;;;51.40;9.38;;;;;;;16.33;48.86;99036.89;1774204;80;25709;-61
2022/04/01 06:17:00;;;;;;;34.58;6.83;;;;;;;16.48;48.35;99042.86;1765477;79;25723;-62
2022/04/01 06:19:47;;;;;;;42.33;9.23;;;;;;;16.62;47.63;99032.75;1773721;79;27608;-62
2022/04/01 06:22:22;;;;;;;29.00;6.67;;;;;;;16.77;47.33;99042.47;1773395;80;25821;-62
2022/04/01 06:25:18;;;;;;;52.70;8.25;;;;;;;16.93;46.72;99037.03;1741880;82;26452;-61
2022/04/01 06:27:51;;;;;;;49.27;8.10;;;;;;;17.07;46.45;99039.16;1773259;80;25795;-62
2022/04/01 06:30:23;;;;;;;42.25;8.50;;;;;;;17.21;45.86;99032.03;1741802;82;25810;-62
2022/04/01 06:33:05;;;;;;;42.88;8.45;;;;;;;17.31;45.72;99035.59;1773147;80;27671;-63
2022/04/01 06:35:57;;;;;;;37.45;8.18;;;;;;;17.40;45.40;99034.80;1769401;80;25706;-62
2022/04/01 06:38:49;;;;;;;33.85;8.08;;;;;;;17.50;45.09;99032.91;1772172;80;25778;-61
2022/04/01 06:41:23;;;;;;;33.18;8.45;;;;;;;17.58;45.15;99029.89;1773297;80;25817;-62
2022/04/01 06:43:52;;;;;;;42.17;8.03;;;;;;;17.69;44.77;99029.70;1771569;79;25863;-62
2022/04/01 06:46:38;;;;;;;44.85;8.00;;;;;;;17.79;44.37;99039.53;1766792;81;27795;-62
2022/04/01 06:49:14;;;;;;;44.27;7.95;;;;;;;17.90;44.03;99046.61;1766676;80;25790;-60
2022/04/01 06:52:02;;;;;;;40.92;8.40;;;;;;;18.06;43.51;99037.89;1766851;80;25458;-63
2022/04/01 06:54:47;;;;;;;32.93;8.18;;;;;;;18.23;43.73;99038.63;1766602;81;26484;-64
2022/04/01 06:57:32;;;;;;;43.42;7.85;;;;;;;18.41;43.04;99035.02;1763486;80;25455;-63
2022/04/01 07:00:12;;;;;;;32.85;8.33;;;;;;;18.57;42.70;99033.02;1680931;82;27464;-63
2022/04/01 07:02:43;;;;;;;38.45;6.90;;;;;;;18.73;42.28;99043.79;1709770;82;25535;-62
2022/04/01 07:05:10;;;;;;;42.80;8.00;;;;;;;18.84;41.52;99040.79;1709655;83;25652;-62
2022/04/01 07:07:44;;;;;;;39.33;6.83;;;;;;;18.98;41.55;99045.53;1709613;83;25810;-62
2022/04/01 07:10:12;;;;;;;55.90;7.53;;;;;;;19.19;40.71;99040.59;1709890;82;25979;-63
2022/04/01 07:12:39;;;;;;;30.97;7.08;;;;;;;19.34;40.42;99045.59;1709729;82;27309;-63
2022/04/01 07:15:10;;;;;;;37.63;7.15;;;;;;;19.48;40.07;99021.64;1709619;83;25713;-64
2022/04/01 07:17:37;;;;;;;40.58;6.83;;;;;;;19.57;40.43;99027.55;1717654;82;25471;-64
2022/04/01 07:20:06;;;;;;;38.78;6.90;;;;;;;19.72;39.79;99015.64;1745302;82;25853;-63
2022/04/01 07:22:36;;;;;;;34.35;7.78;;;;;;;19.81;39.29;99015.54;1745308;81;25969;-64
2022/04/01 07:25:02;;;;;;;51.37;8.28;;;;;;;19.91;38.95;99037.32;1745305;81;28337;-62
2022/04/01 07:27:29;;;;;;;54.88;7.80;;;;;;;19.94;38.77;99036.85;1745210;81;25697;-63
2022/04/01 07:29:56;;;;;;;53.02;8.73;;;;;;;19.94;38.85;99051.86;1745165;82;25506;-63
2022/04/01 07:32:29;;;;;;;35.00;8.53;;;;;;;19.89;39.18;99024.48;1745326;81;25732;-63
2022/04/01 07:34:57;;;;;;;41.98;7.50;;;;;;;19.88;39.39;99022.27;1745289;82;25533;-63
2022/04/01 07:37:25;;;;;;;42.58;7.53;;;;;;;19.96;38.97;99026.53;1745315;81;28339;-63
2022/04/01 07:39:54;;;;;;;36.05;7.30;;;;;;;19.99;38.83;99024.14;1745233;82;25856;-63
2022/04/01 07:42:22;;;;;;;18.77;6.47;;;;;;;19.99;38.85;99017.33;1745278;81;25766;-63
2022/04/01 07:44:50;;;;;;;30.52;7.05;;;;;;;20.01;38.97;99023.38;1748416;81;25730;-62
2022/04/01 07:47:19;;;;;;;38.67;7.25;;;;;;;20.07;38.71;99022.95;1787792;80;25793;-64
2022/04/01 07:49:49;;;;;;;33.92;6.33;;;;;;;20.20;38.60;99022.36;1782979;80;27529;-64
2022/04/01 07:52:19;;;;;;;41.08;6.80;;;;;;;20.33;38.31;99028.92;1787107;80;25706;-63
2022/04/01 07:54:48;;;;;;;32.48;6.85;;;;;;;20.49;38.03;99025.92;1788144;80;25722;-64
2022/04/01 07:57:17;;;;;;;35.78;7.33;;;;;;;20.65;37.71;99005.19;1787948;80;26431;-63
2022/04/01 07:59:44;;;;;;;36.68;7.15;;;;;;;20.80;37.45;99007.39;1750645;80;25823;-63
2022/04/01 08:02:13;;;;;;;31.33;6.72;;;;;;;20.93;37.04;99002.14;1787900;78;27540;-63
2022/04/01 08:04:41;;;;;;;25.02;6.40;;;;;;;21.05;36.69;99016.57;1787795;79;25707;-64
2022/04/01 08:07:08;;;;;;;26.00;6.12;;;;;;;21.12;36.42;99016.38;1788224;79;25750;-64
2022/04/01 08:09:35;;;;;;;27.35;5.70;;;;;;;21.22;36.16;99009.70;1787923;79;25778;-63
2022/04/01 08:12:04;;;;;;;23.35;5.45;;;;;;;21.37;35.79;99020.06;1788427;79;25446;-63
2022/04/01 08:14:31;;;;;;;18.40;4.05;;;;;;;21.49;35.34;98999.44;1787833;80;27687;-63
2022/04/01 08:16:58;;;;;;;31.75;5.12;;;;;;;21.63;35.06;99001.86;1787993;79;25659;-63
2022/04/01 08:19:24;;;;;;;23.92;4.20;;;;;;;21.85;34.83;98994.48;1782013;80;25528;-63
2022/04/01 08:21:51;;;;;;;20.62;3.70;;;;;;;22.15;33.29;98995.09;1782194;79;25745;-63
2022/04/01 08:24:19;;;;;;;14.83;2.35;;;;;;;22.33;33.04;99005.72;1781982;80;25689;-63
2022/04/01 08:26:47;;;;;;;13.35;3.08;;;;;;;22.50;32.11;98991.96;1781726;80;27635;-63
2022/04/01 08:29:14;;;;;;;12.50;2.77;;;;;;;22.60;31.91;98997.26;1781526;80;25818;-63
2022/04/01 08:31:41;;;;;;;23.12;3.10;;;;;;;22.67;31.34;99004.72;1782099;80;25642;-62
2022/04/01 08:34:08;;;;;;;19.32;3.83;;;;;;;22.73;31.80;98987.23;1781831;80;25961;-63
2022/04/01 08:36:34;;;;;;;12.85;3.47;;;;;;;22.91;31.58;98983.28;1767841;81;25785;-63
2022/04/01 08:39:03;;;;;;;20.05;3.75;;;;;;;23.02;30.89;98980.63;1781791;80;27469;-63
2022/04/01 08:41:30;;;;;;;17.30;4.20;;;;;;;23.00;31.18;98982.80;1781868;80;25450;-64
2022/04/01 08:43:57;;;;;;;23.98;3.60;;;;;;;23.13;31.33;98985.08;1780149;80;25497;-63
2022/04/01 08:46:24;;;;;;;16.02;3.27;;;;;;;23.19;31.22;98988.72;1759986;81;25938;-63
2022/04/01 08:48:52;;;;;;;24.07;3.77;;;;;;;23.22;30.88;98982.72;1759952;80;25797;-63
2022/04/01 08:51:18;;;;;;;17.50;3.30;;;;;;;23.25;30.98;98984.38;1759809;81;27676;-63
2022/04/01 08:53:46;;;;;;;21.97;3.10;;;;;;;23.37;31.11;98986.92;1759897;81;25636;-63
2022/04/01 08:56:14;;;;;;;18.30;3.45;;;;;;;23.46;29.97;98990.02;1760205;81;25782;-64
2022/04/01 08:58:41;;;;;;;20.62;3.12;;;;;;;23.61;29.70;98981.05;1745124;81;26411;-63
2022/04/01 09:01:08;;;;;;;19.95;3.00;;;;;;;23.69;29.87;98979.16;1771567;79;25755;-62
2022/04/01 09:03:36;;;;;;;21.23;3.02;;;;;;;23.80;29.77;98980.03;1739608;82;28190;-62
2022/04/01 09:06:06;;;;;;;18.50;3.05;;;;;;;23.86;29.67;98976.77;1771238;79;25833;-63
2022/04/01 09:08:37;;;;;;;10.53;2.33;;;;;;;24.11;29.16;98983.47;1739618;82;25728;-64
2022/04/01 09:11:12;;;;;;;10.23;2.37;;;;;;;24.36;28.55;98993.71;1771448;79;25798;-63
2022/04/01 09:13:47;;;;;;;11.80;2.42;;;;;;;24.54;28.08;98991.83;1738534;81;25683;-63
2022/04/01 09:16:28;;;;;;;22.07;3.05;;;;;;;24.73;28.34;98978.12;1779684;79;27478;-62
2022/04/01 09:18:59;;;;;;;8.40;2.27;;;;;;;24.96;28.17;98972.09;1776654;80;25727;-63
2022/04/01 09:21:42;;;;;;;13.32;2.37;;;;;;;25.19;27.50;98990.48;1786561;79;25923;-64
2022/04/01 09:24:06;;;;;;;13.45;2.05;;;;;;;25.46;26.43;98977.80;1785733;79;25810;-63
2022/04/01 09:26:37;;;;;;;16.80;2.20;;;;;;;25.60;26.13;98964.84;1787337;80;25929;-63
2022/04/01 09:29:10;;;;;;;14.53;1.80;;;;;;;25.86;26.14;98962.83;1787445;79;27608;-63
2022/04/01 09:31:40;;;;;;;10.78;2.08;;;;;;;26.39;25.83;98955.39;1787327;80;25712;-62
2022/04/01 09:34:11;;;;;;;7.55;2.10;;;;;;;26.86;24.92;98966.11;1787572;79;25727;-63
2022/04/01 09:36:41;;;;;;;13.80;2.85;;;;;;;27.29;24.11;98960.73;1787353;80;25793;-63
2022/04/01 09:39:12;;;;;;;6.85;2.05;;;;;;;27.88;24.04;98941.86;1787720;80;26177;-64
2022/04/01 09:41:49;;;;;;;10.50;1.62;;;;;;;28.70;22.64;98946.26;1787553;80;28148;-63
2022/04/01 09:44:27;;;;;;;9.68;2.40;;;;;;;29.27;22.62;98925.86;1787348;79;26078;-63
2022/04/01 09:47:01;;;;;;;10.78;2.37;;;;;;;29.88;21.80;98939.66;1787337;79;25743;-63
2022/04/01 09:49:42;;;;;;;13.45;1.90;;;;;;;30.42;21.43;98938.46;1787705;80;25838;-63
2022/04/01 09:52:16;;;;;;;9.83;2.17;;;;;;;31.12;20.92;98935.41;1787304;80;26131;-62
2022/04/01 09:54:49;;;;;;;10.30;2.10;;;;;;;31.73;19.14;98941.00;1787568;80;27379;-63
2022/04/01 09:57:18;;;;;;;;;;;;;;;31.92;19.50;98928.19;1789883;80;25747;-63
2022/04/01 09:59:47;;;;;;;13.45;2.20;;;;;;;32.32;18.44;98925.30;1790529;80;25682;-62
2022/04/01 10:02:14;;;;;;;12.73;2.37;;;;;;;32.79;18.03;98937.19;1756593;81;25761;-63
2022/04/01 10:04:41;;;;;;;15.43;1.62;;;;;;;32.97;18.06;98921.24;1756028;81;25903;-63
2022/04/01 10:07:10;;;;;;;17.67;1.98;;;;;;;33.40;17.36;98924.47;1756156;81;27612;-63
2022/04/01 10:09:38;;;;;;;17.98;2.20;;;;;;;33.16;17.69;98927.00;1756087;81;26159;-63
2022/04/01 10:12:12;;;;;;;15.98;1.72;;;;;;;33.22;18.21;98922.88;1756166;81;25801;-63
2022/04/01 10:14:40;;;;;;;7.35;1.55;;;;;;;33.69;17.27;98926.23;1756294;81;25833;-63
2022/04/01 10:17:10;;;;;;;11.08;1.95;;;;;;;34.10;16.53;98921.09;1756086;81;25794;-64
2022/04/01 10:19:41;;;;;;;21.90;2.15;;;;;;;34.42;16.71;98913.13;1771712;81;27524;-64
2022/04/01 10:22:11;;;;;;;11.18;1.55;;;;;;;34.63;16.10;98913.09;1771599;79;25696;-64
2022/04/01 10:25:14;;;;;;;6.03;1.70;;;;;;;35.00;15.35;98930.59;1739059;81;25496;-64
2022/04/01 10:27:51;;;;;;;11.03;1.62;;;;;;;35.21;16.47;98917.94;1770195;80;25923;-63
2022/04/01 10:30:20;;;;;;;7.92;1.50;;;;;;;35.54;15.81;98917.04;1739460;82;25821;-64
2022/04/01 10:32:48;;;;;;;6.60;1.35;;;;;;;36.09;15.28;98903.58;1771420;80;27466;-65
2022/04/01 10:35:29;;;;;;;8.83;1.30;;;;;;;36.47;14.48;98902.32;1739421;82;25698;-65
2022/04/01 10:38:10;;;;;;;12.23;1.32;;;;;;;36.38;14.08;98908.63;1739274;81;25479;-64
2022/04/01 10:40:40;;;;;;;14.87;1.70;;;;;;;36.36;14.79;98909.56;1770720;81;25668;-65
2022/04/01 10:43:21;;;;;;;9.30;2.02;;;;;;;35.99;14.40;98892.91;1771503;79;25694;-64
2022/04/01 10:46:13;;;;;;;4.95;1.40;;;;;;;35.93;15.12;98895.70;1740294;82;27471;-64
2022/04/01 10:52:17;;;;;;;4.97;1.57;;;;;;;35.29;14.75;98907.23;1773818;80;25435;-65
2022/04/01 10:54:48;;;;;;;5.33;1.65;;;;;;;35.54;14.46;98891.31;1773812;80;25784;-63
2022/04/01 10:57:29;;;;;;;4.75;1.25;;;;;;;34.43;15.41;98886.86;1741514;82;25729;-64
2022/04/01 11:00:01;;;;;;;8.48;1.85;;;;;;;33.63;16.20;98872.64;1743191;82;27491;-63
2022/04/01 11:02:28;;;;;;;11.22;1.65;;;;;;;33.06;16.73;98874.69;1742467;82;26313;-64
2022/04/01 11:05:25;;;;;;;6.55;1.35;;;;;;;32.58;16.67;98881.36;1743154;82;25510;-63
2022/04/01 11:08:19;;;;;;;11.68;1.87;;;;;;;33.02;16.23;98877.91;1744483;80;25772;-63
2022/04/01 11:11:12;;;;;;;6.15;1.40;;;;;;;33.86;16.18;98876.52;1715674;82;25983;-64
2022/04/01 11:13:39;;;;;;;9.03;1.40;;;;;;;34.55;15.29;98872.12;1743103;82;28327;-64
2022/04/01 11:16:22;;;;;;;7.67;1.50;;;;;;;34.72;15.27;98867.75;1742910;82;26245;-64
2022/04/01 11:19:17;;;;;;;6.37;1.57;;;;;;;33.66;15.84;98862.78;1765325;80;25799;-63
2022/04/01 11:21:47;;;;;;;5.92;1.70;;;;;;;32.61;16.50;98865.37;1773282;79;26909;-64
2022/04/01 11:24:35;;;;;;;10.75;1.62;;;;;;;32.00;17.16;98864.81;1773632;80;25744;-63
2022/04/01 11:27:25;;;;;;;12.98;1.75;;;;;;;32.12;17.32;98850.25;1774139;79;28455;-63
2022/04/01 11:30:14;;;;;;;11.38;1.55;;;;;;;31.86;17.60;98841.92;1773729;80;25792;-63
2022/04/01 11:32:44;;;;;;;10.98;3.08;;;;;;;32.32;17.64;98833.48;1774277;80;25787;-63
2022/04/01 11:35:13;;;;;;;8.00;1.85;;;;;;;33.36;17.09;98838.53;1773742;80;25765;-63
2022/04/01 11:37:44;;;;;;;8.43;1.70;;;;;;;33.49;16.11;98843.63;1773972;80;25724;-64
2022/04/01 11:40:18;;;;;;;13.53;2.87;;;;;;;33.43;16.00;98834.39;1773833;79;28134;-64
2022/04/01 11:43:17;;;;;;;9.70;1.98;;;;;;;33.52;15.94;98818.43;1774037;80;25735;-64
2022/04/01 11:45:51;;;;;;;12.03;1.67;;;;;;;32.61;16.36;98822.23;1756993;80;26079;-63
2022/04/01 11:48:29;;;;;;;7.10;1.92;;;;;;;32.38;16.84;98816.05;1728552;81;25858;-64
2022/04/01 11:51:08;;;;;;;7.87;1.70;;;;;;;32.52;16.94;98833.95;1730129;82;25672;-64
2022/04/01 11:53:45;;;;;;;9.83;1.77;;;;;;;33.00;16.40;98806.96;1731239;82;28194;-64
2022/04/01 11:56:12;;;;;;;4.35;1.20;;;;;;;32.77;16.12;98807.20;1729542;81;25772;-63
2022/04/01 11:58:53;;;;;;;9.80;1.70;;;;;;;32.26;16.29;98806.44;1726045;81;25459;-64